.
WxDataArchive / Data Records for 2014-10-08
2014-10-07 October 2014 2014-10-09

Data Records for Wednesday, 08 October 2014

Time	Temp	Chill	HIndex	Humid	Dewpt	 Wind 	HiWind	WindDir	Rain 	Barom
-----	----	-----	------	-----	-----	------	------	-------	-----	-----
00:00	48.6	48.6	48.6	94	47.0	0	0	---	0.00	29.802 
00:05	48.6	48.6	48.6	94	47.0	0	1	270	0.00	29.802 
00:10	48.6	48.6	48.6	94	47.0	0	1	270	0.00	29.802 
00:15	48.8	48.8	48.8	94	47.1	0	1	270	0.00	29.806 
00:20	48.9	48.9	48.9	94	47.2	0	1	270	0.00	29.806 
00:25	48.9	48.9	48.9	94	47.2	0	1	270	0.00	29.806 
00:30	48.9	48.9	48.9	94	47.2	0	0	---	0.00	29.805 
00:35	48.9	48.9	48.9	94	47.2	0	1	270	0.00	29.805 
00:40	48.8	48.8	48.8	94	47.1	0	0	---	0.00	29.805 
00:45	48.8	48.8	48.8	94	47.1	0	0	---	0.00	29.811 
00:50	48.8	48.8	48.8	93	46.9	0	0	---	0.00	29.811 
00:55	48.8	48.8	48.8	93	46.9	0	0	---	0.00	29.811 
01:00	48.6	48.6	48.6	93	46.7	0	0	---	0.00	29.812 
01:05	48.6	48.6	48.6	93	46.7	0	0	---	0.00	29.812 
01:10	48.6	48.6	48.6	93	46.7	0	1	270	0.00	29.812 
01:15	48.5	48.5	48.5	93	46.6	0	0	---	0.00	29.813 
01:20	48.5	48.5	48.5	93	46.6	0	0	---	0.00	29.813 
01:25	48.5	48.5	48.5	93	46.6	0	1	270	0.00	29.813 
01:30	48.5	48.5	48.5	92	46.3	0	0	---	0.00	29.813 
01:35	48.5	48.5	48.5	92	46.3	0	0	---	0.00	29.813 
01:40	48.3	48.3	48.3	92	46.1	0	0	---	0.00	29.813 
01:45	48.3	48.3	48.3	92	46.1	0	0	---	0.00	29.815 
01:50	48.2	48.2	48.2	92	46.0	0	0	---	0.00	29.815 
01:55	48.2	48.2	48.2	92	46.0	0	1	270	0.00	29.815 
02:00	48.2	48.2	48.2	92	46.0	0	1	270	0.00	29.821 
02:05	48.2	48.2	48.2	92	46.0	0	0	---	0.00	29.821 
02:10	48.2	48.2	48.2	92	46.0	0	0	---	0.00	29.821 
02:15	48.2	48.2	48.2	92	46.0	0	0	---	0.00	29.824 
02:20	48.2	48.2	48.2	92	46.0	0	0	---	0.00	29.824 
02:25	48.2	48.2	48.2	91	45.7	0	0	---	0.00	29.824 
02:30	48.0	48.0	48.0	91	45.5	0	1	270	0.00	29.826 
02:35	48.0	48.0	48.0	91	45.5	0	0	---	0.00	29.826 
02:40	48.2	48.2	48.2	91	45.7	0	1	270	0.00	29.826 
02:45	48.2	48.2	48.2	91	45.7	0	0	---	0.00	29.829 
02:50	48.2	48.2	48.2	91	45.7	0	1	270	0.00	29.829 
02:55	48.2	48.2	48.2	91	45.7	0	1	270	0.00	29.829 
03:00	48.3	48.3	48.3	91	45.8	0	1	270	0.00	29.829 
03:05	48.3	48.3	48.3	90	45.5	0	1	270	0.00	29.829 
03:10	48.2	48.2	48.2	90	45.4	0	1	270	0.00	29.829 
03:15	48.3	48.3	48.3	90	45.5	0	1	270	0.00	29.829 
03:20	48.3	48.3	48.3	90	45.5	0	1	270	0.00	29.829 
03:25	48.3	48.3	48.3	89	45.2	0	1	270	0.00	29.829 
03:30	48.3	48.3	48.3	89	45.2	0	1	270	0.00	29.829 
03:35	48.3	48.3	48.3	89	45.2	0	1	270	0.00	29.829 
03:40	48.3	48.3	48.3	89	45.2	0	1	270	0.00	29.829 
03:45	48.2	48.2	48.2	89	45.1	0	1	270	0.00	29.834 
03:50	48.2	48.2	48.2	88	44.8	0	1	270	0.00	29.834 
03:55	48.0	48.0	48.0	88	44.6	0	1	270	0.00	29.834 
04:00	48.0	48.0	48.0	88	44.6	0	1	270	0.00	29.838 
04:05	48.0	48.0	48.0	88	44.6	0	1	270	0.00	29.838 
04:10	47.9	47.9	47.9	88	44.5	0	1	270	0.00	29.838 
04:15	47.9	47.9	47.9	88	44.5	0	1	270	0.00	29.839 
04:20	47.9	47.9	47.9	88	44.5	0	1	270	0.00	29.839 
04:25	47.9	47.9	47.9	88	44.5	0	1	270	0.00	29.839 
04:30	47.7	47.7	47.7	88	44.3	0	1	270	0.00	29.838 
04:35	47.7	47.7	47.7	88	44.3	0	1	270	0.00	29.838 
04:40	47.6	47.6	47.6	88	44.2	0	1	270	0.00	29.838 
04:45	47.6	47.6	47.6	88	44.2	0	1	270	0.00	29.837 
04:50	47.4	47.4	47.4	88	44.0	0	1	270	0.00	29.837 
04:55	47.3	47.3	47.3	88	43.9	0	0	---	0.00	29.837 
05:00	47.3	47.3	47.3	88	43.9	0	0	---	0.00	29.839 
05:05	47.1	47.1	47.1	88	43.7	0	0	---	0.00	29.839 
05:10	47.0	47.0	47.0	88	43.6	0	0	---	0.00	29.839 
05:15	46.8	46.8	46.8	88	43.4	0	0	---	0.00	29.846 
05:20	46.7	46.7	46.7	88	43.3	0	0	---	0.00	29.846 
05:25	46.5	46.5	46.5	89	43.4	0	1	270	0.00	29.846 
05:30	46.4	46.4	46.4	89	43.3	0	0	---	0.00	29.851 
05:35	46.4	46.4	46.4	89	43.3	0	0	---	0.00	29.851 
05:40	46.2	46.2	46.2	89	43.1	0	0	---	0.00	29.851 
05:45	46.2	46.2	46.2	89	43.1	0	0	---	0.00	29.863 
05:50	46.1	46.1	46.1	90	43.3	0	0	---	0.00	29.863 
05:55	46.1	46.1	46.1	90	43.3	0	0	---	0.00	29.863 
06:00	46.1	46.1	46.1	90	43.3	0	1	270	0.00	29.870 
06:05	46.1	46.1	46.1	90	43.3	0	1	270	0.00	29.870 
06:10	46.1	46.1	46.1	90	43.3	0	1	270	0.00	29.870 
06:15	46.1	46.1	46.1	90	43.3	0	0	---	0.00	29.878 
06:20	46.1	46.1	46.1	90	43.3	0	2	270	0.00	29.878 
06:25	46.1	46.1	46.1	90	43.3	0	1	270	0.00	29.878 
06:30	46.1	46.1	46.1	90	43.3	0	1	270	0.00	29.880 
06:35	46.1	46.1	46.1	90	43.3	0	1	270	0.00	29.880 
06:40	46.1	46.1	46.1	90	43.3	0	1	270	0.00	29.880 
06:45	46.1	46.1	46.1	90	43.3	0	1	270	0.00	29.893 
06:50	46.1	46.1	46.1	90	43.3	0	1	270	0.00	29.893 
06:55	46.1	46.1	46.1	90	43.3	0	2	270	0.00	29.893 
07:00	46.1	46.1	46.1	90	43.3	0	1	270	0.00	29.899 
07:05	46.1	46.1	46.1	89	43.0	0	1	270	0.00	29.899 
07:10	46.2	46.2	46.2	89	43.1	0	1	270	0.00	29.899 
07:15	46.1	46.1	46.1	89	43.0	0	1	270	0.00	29.913 
07:20	46.1	46.1	46.1	89	43.0	0	1	270	0.00	29.913 
07:25	46.1	46.1	46.1	89	43.0	0	1	270	0.00	29.913 
07:30	46.1	46.1	46.1	89	43.0	0	1	270	0.00	29.917 
07:35	46.0	46.0	46.0	88	42.6	0	1	270	0.00	29.917 
07:40	46.0	46.0	46.0	88	42.6	0	2	270	0.00	29.917 
07:45	45.8	45.8	45.8	88	42.5	0	1	270	0.00	29.928 
07:50	45.8	45.8	45.8	88	42.5	0	1	270	0.00	29.928 
07:55	45.8	45.8	45.8	88	42.5	0	1	270	0.00	29.928 
08:00	45.8	45.8	45.8	89	42.7	0	1	270	0.00	29.933 
08:05	45.8	45.8	45.8	89	42.7	0	1	270	0.00	29.933 
08:10	45.8	45.8	45.8	89	42.7	0	1	270	0.00	29.933 
08:15	45.8	45.8	45.8	88	42.5	0	2	270	0.00	29.945 
08:20	46.0	46.0	46.0	88	42.6	0	1	270	0.00	29.945 
08:25	46.1	46.1	46.1	88	42.7	0	1	270	0.00	29.945 
08:30	46.2	46.2	46.2	88	42.8	0	1	270	0.00	29.953 
08:35	46.4	46.4	46.4	88	43.0	0	3	270	0.00	29.953 
08:40	46.7	46.7	46.7	88	43.3	1	4	270	0.00	29.953 
08:45	46.8	46.8	46.8	87	43.1	0	2	270	0.00	29.958 
08:50	47.0	47.0	47.0	87	43.3	0	3	270	0.00	29.958 
08:55	47.1	47.1	47.1	86	43.1	0	2	270	0.00	29.958 
09:00	47.4	47.4	47.4	86	43.4	0	2	270	0.00	29.960 
09:05	47.7	47.7	47.7	86	43.7	0	3	270	0.00	29.960 
09:10	48.2	48.2	48.2	85	43.9	1	4	270	0.00	29.960 
09:15	48.5	48.5	48.5	84	43.9	1	4	270	0.00	29.964 
09:20	48.8	48.8	48.8	84	44.2	1	3	270	0.00	29.964 
09:25	48.9	48.9	48.9	83	44.0	1	3	270	0.00	29.964 
09:30	49.2	49.2	49.2	83	44.3	0	3	270	0.00	29.970 
09:35	49.2	49.2	49.2	82	43.9	0	3	270	0.00	29.970 
09:40	49.5	49.5	49.5	83	44.6	0	2	270	0.00	29.970 
09:45	49.6	49.6	49.6	82	44.3	1	2	270	0.00	29.974 
09:50	50.1	50.1	50.1	82	44.8	0	3	270	0.00	29.974 
09:55	50.4	50.4	50.4	81	44.8	0	3	270	0.00	29.974 
10:00	50.7	50.7	50.7	81	45.1	0	3	270	0.00	29.974 
10:05	51.0	51.0	51.0	80	45.0	1	3	270	0.00	29.974 
10:10	51.4	51.4	51.4	80	45.4	1	3	270	0.00	29.974 
10:15	51.7	51.7	51.7	78	45.1	1	3	270	0.00	29.977 
10:20	52.2	52.2	52.2	77	45.2	2	4	270	0.00	29.977 
10:25	52.3	52.3	52.3	76	45.0	1	4	270	0.00	29.977 
10:30	52.3	52.3	52.3	76	45.0	1	4	270	0.00	29.979 
10:35	52.5	52.5	52.5	76	45.2	1	4	270	0.00	29.979 
10:40	52.6	52.6	52.6	76	45.3	2	5	270	0.00	29.979 
10:45	52.8	52.8	52.8	75	45.1	2	5	270	0.00	29.982 
10:50	53.3	53.3	53.3	77	46.3	1	3	270	0.00	29.982 
10:55	53.8	53.8	53.8	76	46.4	1	3	270	0.00	29.982 
11:00	54.2	54.2	54.2	75	46.4	1	4	270	0.00	29.985 
11:05	54.5	54.5	54.5	73	46.0	2	4	270	0.00	29.985 
11:10	54.8	54.8	54.8	71	45.6	2	5	270	0.00	29.985 
11:15	55.3	55.3	55.3	71	46.1	1	3	270	0.00	29.986 
11:20	55.6	55.6	55.6	69	45.6	2	6	270	0.00	29.986 
11:25	55.9	55.9	55.9	69	45.9	2	6	292	0.00	29.986 
11:30	56.5	56.5	56.5	69	46.5	1	6	315	0.00	29.985 
11:35	57.0	57.0	57.0	67	46.2	1	4	315	0.00	29.985 
11:40	57.3	57.3	57.3	67	46.4	1	5	315	0.00	29.985 
11:45	57.5	57.5	57.5	66	46.2	2	4	292	0.00	29.983 
11:50	57.8	57.8	57.8	67	46.9	1	3	270	0.00	29.983 
11:55	57.8	57.8	57.8	59	43.6	3	6	270	0.00	29.983 
12:00	57.6	57.6	57.6	58	42.9	3	6	270	0.00	29.985 
12:05	58.0	58.0	58.0	56	42.4	3	7	270	0.00	29.985 
12:10	58.3	58.3	58.3	57	43.1	2	6	270	0.00	29.985 
12:15	58.4	58.4	58.4	55	42.3	4	9	292	0.00	29.985 
12:20	58.6	58.6	58.6	56	43.0	3	6	270	0.00	29.985 
12:25	58.7	58.7	58.7	56	43.0	1	5	270	0.00	29.985 
12:30	59.2	59.2	59.2	56	43.5	2	6	270	0.00	29.983 
12:35	59.2	59.2	59.2	53	42.1	3	9	270	0.00	29.983 
12:40	59.8	59.8	59.8	56	44.1	1	5	270	0.00	29.983 
12:45	60.2	60.2	60.2	51	42.0	2	7	270	0.00	29.980 
12:50	60.1	60.1	60.1	48	40.3	3	9	248	0.00	29.980 
12:55	59.9	59.9	59.9	49	40.7	3	9	292	0.00	29.980 
13:00	59.5	59.5	59.5	46	38.7	4	9	270	0.00	29.983 
13:05	58.9	58.9	58.9	45	37.6	4	9	270	0.00	29.983 
13:10	58.3	58.3	58.3	45	37.1	4	10	270	0.00	29.983 
13:15	58.3	58.3	58.3	46	37.6	3	10	270	0.00	29.985 
13:20	58.7	58.7	58.7	47	38.5	3	6	270	0.00	29.985 
13:25	59.5	59.5	59.5	43	37.0	3	6	270	0.00	29.985 
13:30	60.2	60.2	60.2	43	37.6	3	10	270	0.00	29.983 
13:35	60.5	60.5	60.5	42	37.3	3	10	270	0.00	29.983 
13:40	60.7	60.7	60.7	39	35.6	4	7	292	0.00	29.983 
13:45	60.5	60.5	60.5	38	34.8	4	10	270	0.00	29.985 
13:50	60.4	60.4	60.4	37	34.0	4	7	270	0.00	29.985 
13:55	60.5	60.5	60.5	41	36.7	3	5	292	0.00	29.985 
14:00	60.7	60.7	60.7	40	36.2	2	5	270	0.00	29.983 
14:05	60.7	60.7	60.7	39	35.6	4	10	270	0.00	29.983 
14:10	60.5	60.5	60.5	38	34.8	4	10	270	0.00	29.983 
14:15	60.5	60.5	60.5	37	34.1	4	9	270	0.00	29.981 
14:20	60.2	60.2	60.2	38	34.5	5	8	292	0.00	29.981 
14:25	60.5	60.5	60.5	38	34.8	3	6	292	0.00	29.981 
14:30	60.5	60.5	60.5	37	34.1	5	10	292	0.00	29.982 
14:35	60.7	60.7	60.7	40	36.2	3	8	292	0.00	29.982 
14:40	60.7	60.7	60.7	38	34.9	4	7	270	0.00	29.982 
14:45	61.2	61.2	61.2	39	36.0	3	6	292	0.00	29.981 
14:50	61.3	61.3	61.3	37	34.8	2	5	270	0.00	29.981 
14:55	61.3	61.3	61.3	36	34.1	3	6	292	0.00	29.981 
15:00	61.2	61.2	61.2	35	33.3	4	9	270	0.00	29.980 
15:05	61.2	61.2	61.2	34	32.6	4	10	292	0.00	29.980 
15:10	61.3	61.3	61.3	34	32.7	2	7	270	0.00	29.980 
15:15	61.3	61.3	61.3	35	33.4	3	7	270	0.00	29.981 
15:20	61.3	61.3	61.3	34	32.7	3	6	270	0.00	29.981 
15:25	61.3	61.3	61.3	35	33.4	3	7	338	0.00	29.981 
15:30	61.2	61.2	61.2	34	32.6	3	9	270	0.00	29.985 
15:35	61.0	61.0	61.0	33	31.7	3	8	270	0.00	29.985 
15:40	61.0	61.0	61.0	33	31.7	3	10	270	0.00	29.985 
15:45	61.3	61.3	61.3	33	32.0	2	5	292	0.00	29.982 
15:50	61.6	61.6	61.6	31	30.7	3	10	270	0.00	29.982 
15:55	61.8	61.8	61.8	30	30.0	3	7	270	0.00	29.982 
16:00	61.8	61.8	61.8	28	28.4	3	7	270	0.00	29.985 
16:05	61.5	61.5	61.5	28	28.1	4	9	270	0.00	29.985 
16:10	61.3	61.3	61.3	30	29.6	3	9	292	0.00	29.985 
16:15	61.3	61.3	61.3	28	27.9	4	7	292	0.00	29.988 
16:20	61.2	61.2	61.2	27	27.0	4	8	292	0.00	29.988 
16:25	61.0	61.0	61.0	28	27.7	4	10	292	0.00	29.988 
16:30	61.2	61.2	61.2	29	28.7	2	7	270	0.00	29.987 
16:35	61.2	61.2	61.2	27	27.0	3	10	315	0.00	29.987 
16:40	61.0	61.0	61.0	28	27.7	3	8	292	0.00	29.987 
16:45	61.0	61.0	61.0	29	28.5	3	9	315	0.00	29.992 
16:50	61.0	61.0	61.0	29	28.5	1	4	270	0.00	29.992 
16:55	61.0	61.0	61.0	29	28.5	2	6	270	0.00	29.992 
17:00	61.2	61.2	61.2	31	30.3	1	4	270	0.00	29.991 
17:05	61.2	61.2	61.2	30	29.5	2	5	270	0.00	29.991 
17:10	61.0	61.0	61.0	29	28.5	3	6	270	0.00	29.991 
17:15	61.0	61.0	61.0	29	28.5	3	6	315	0.00	29.989 
17:20	61.0	61.0	61.0	30	29.3	1	5	338	0.00	29.989 
17:25	61.0	61.0	61.0	31	30.2	1	5	315	0.00	29.989 
17:30	61.2	61.2	61.2	32	31.1	1	3	270	0.00	29.987 
17:35	61.2	61.2	61.2	35	33.3	1	3	270	0.00	29.987 
17:40	61.0	61.0	61.0	32	30.9	1	4	270	0.00	29.987 
17:45	61.0	61.0	61.0	35	33.2	1	5	270	0.00	29.989 
17:50	60.9	60.9	60.9	34	32.3	1	5	270	0.00	29.989 
17:55	60.7	60.7	60.7	31	29.9	2	5	270	0.00	29.989 
18:00	60.7	60.7	60.7	33	31.4	1	5	270	0.00	29.992 
18:05	60.5	60.5	60.5	33	31.3	1	5	270	0.00	29.992 
18:10	60.4	60.4	60.4	33	31.2	1	4	270	0.00	29.992 
18:15	60.2	60.2	60.2	35	32.4	0	2	270	0.00	29.991 
18:20	60.1	60.1	60.1	36	33.1	0	1	270	0.00	29.991 
18:25	59.9	59.9	59.9	37	33.6	0	1	270	0.00	29.991 
18:30	59.6	59.6	59.6	36	32.6	1	4	270	0.00	29.989 
18:35	59.5	59.5	59.5	36	32.5	0	2	270	0.00	29.989 
18:40	59.3	59.3	59.3	35	31.7	1	2	270	0.00	29.989 
18:45	59.2	59.2	59.2	36	32.3	0	1	270	0.00	29.994 
18:50	59.0	59.0	59.0	37	32.8	0	1	270	0.00	29.994 
18:55	58.7	58.7	58.7	38	33.2	0	1	270	0.00	29.994 
19:00	58.4	58.4	58.4	39	33.5	0	1	270	0.00	29.991 
19:05	58.0	58.0	58.0	40	33.8	0	0	---	0.00	29.991 
19:10	57.5	57.5	57.5	41	34.0	0	0	---	0.00	29.991 
19:15	56.9	56.9	56.9	42	34.0	0	0	---	0.00	29.994 
19:20	56.3	56.3	56.3	43	34.1	0	0	---	0.00	29.994 
19:25	55.9	55.9	55.9	45	34.9	0	0	---	0.00	29.994 
19:30	55.3	55.3	55.3	46	34.9	0	0	---	0.00	29.997 
19:35	54.7	54.7	54.7	47	34.9	0	0	---	0.00	29.997 
19:40	54.1	54.1	54.1	49	35.4	0	0	---	0.00	29.997 
19:45	53.6	53.6	53.6	51	35.9	0	0	---	0.00	30.004 
19:50	53.1	53.1	53.1	53	36.4	0	0	---	0.00	30.004 
19:55	52.6	52.6	52.6	54	36.4	0	0	---	0.00	30.004 
20:00	52.2	52.2	52.2	56	37.0	0	0	---	0.00	30.008 
20:05	51.6	51.6	51.6	58	37.3	0	0	---	0.00	30.008 
20:10	51.0	51.0	51.0	60	37.6	0	0	---	0.00	30.008 
20:15	50.2	50.2	50.2	61	37.3	0	0	---	0.00	30.011 
20:20	49.8	49.8	49.8	62	37.3	0	0	---	0.00	30.011 
20:25	49.4	49.4	49.4	63	37.3	0	0	---	0.00	30.011 
20:30	49.1	49.1	49.1	64	37.5	0	0	---	0.00	30.014 
20:35	48.6	48.6	48.6	65	37.4	0	0	---	0.00	30.014 
20:40	48.3	48.3	48.3	66	37.5	0	0	---	0.00	30.014 
20:45	48.0	48.0	48.0	67	37.6	0	0	---	0.00	30.016 
20:50	47.7	47.7	47.7	69	38.0	0	0	---	0.00	30.016 
20:55	47.3	47.3	47.3	70	38.0	0	0	---	0.00	30.016 
21:00	47.0	47.0	47.0	70	37.7	0	0	---	0.00	30.017 
21:05	46.7	46.7	46.7	71	37.8	0	0	---	0.00	30.017 
21:10	46.5	46.5	46.5	73	38.3	0	0	---	0.00	30.017 
21:15	46.2	46.2	46.2	75	38.7	0	0	---	0.00	30.014 
21:20	46.1	46.1	46.1	76	39.0	0	0	---	0.00	30.014 
21:25	46.0	46.0	46.0	76	38.9	0	0	---	0.00	30.014 
21:30	45.8	45.8	45.8	76	38.7	0	0	---	0.00	30.018 
21:35	45.7	45.7	45.7	77	38.9	0	0	---	0.00	30.018 
21:40	45.5	45.5	45.5	77	38.7	0	0	---	0.00	30.018 
21:45	45.4	45.4	45.4	77	38.6	0	0	---	0.00	30.020 
21:50	45.2	45.2	45.2	77	38.4	0	0	---	0.00	30.020 
21:55	45.2	45.2	45.2	77	38.4	0	0	---	0.00	30.020 
22:00	45.1	45.1	45.1	77	38.3	0	0	---	0.00	30.025 
22:05	45.1	45.1	45.1	76	38.0	0	0	---	0.00	30.025 
22:10	45.1	45.1	45.1	76	38.0	0	0	---	0.00	30.025 
22:15	44.9	44.9	44.9	75	37.5	0	0	---	0.00	30.020 
22:20	45.1	45.1	45.1	74	37.3	0	0	---	0.00	30.020 
22:25	45.2	45.2	45.2	73	37.1	0	0	---	0.00	30.020 
22:30	45.7	45.7	45.7	73	37.5	0	0	---	0.00	30.016 
22:35	46.0	46.0	46.0	71	37.1	0	0	---	0.00	30.016 
22:40	46.1	46.1	46.1	70	36.9	0	0	---	0.00	30.016 
22:45	46.4	46.4	46.4	69	36.8	0	0	---	0.00	30.020 
22:50	46.4	46.4	46.4	69	36.8	0	0	---	0.00	30.020 
22:55	46.5	46.5	46.5	69	36.9	0	0	---	0.00	30.020 
23:00	46.7	46.7	46.7	69	37.1	0	0	---	0.00	30.013 
23:05	46.7	46.7	46.7	68	36.7	0	0	---	0.00	30.013 
23:10	46.7	46.7	46.7	68	36.7	0	0	---	0.00	30.013 
23:15	46.7	46.7	46.7	67	36.3	0	0	---	0.00	30.009 
23:20	46.8	46.8	46.8	67	36.4	0	0	---	0.00	30.009 
23:25	46.8	46.8	46.8	67	36.4	0	0	---	0.00	30.009 
23:30	47.0	47.0	47.0	67	36.6	0	0	---	0.00	30.017 
23:35	47.1	47.1	47.1	67	36.7	0	0	---	0.00	30.017 
23:40	47.1	47.1	47.1	67	36.7	0	0	---	0.00	30.017 
23:45	47.1	47.1	47.1	67	36.7	0	0	---	0.00	30.017 
23:50	47.3	47.3	47.3	66	36.5	0	0	---	0.00	30.017 
23:55	47.4	47.4	47.4	65	36.2	0	0	---	0.00	30.017 

CoCoRaHS
IN-AL-39
A2 Web Hosting
Creative Commons License
GoDaddy
search engine by freefind advanced

loaded 2018-11-15 16:40:46 • last modified 2010-11-18 10:43:29
Privacy PolicyDisclaimer
• wx.awcolley.com is powered by PmWiki v.2002016 •
• all content (unless otherwise noted) © 2018 A W Colley